NCAR-RAP Real-Time Weather Data

Output produced by METARs form (19 June 2019  10:40 UTC)
found at http://weather.rap.ucar.edu/surface/
 
KAPN 190954Z AUTO 00000KT 10SM OVC055 13/12 A2983 RMK AO2 SLP101 T01330122
KAPN 190854Z AUTO 22003KT 10SM BKN049 OVC065 13/12 A2984 RMK AO2 SLP104 T01330122 55009
KAPN 190754Z AUTO 00000KT 10SM BKN085 OVC120 13/12 A2984 RMK AO2 SLP103 T01280117
KAPN 190654Z AUTO 00000KT 10SM FEW050 BKN080 OVC100 13/12 A2986 RMK AO2 SLP111 T01330117
KAPN 190554Z AUTO 00000KT 10SM SCT050 OVC070 13/12 A2987 RMK AO2 SLP113 60000 T01330117 10150 20128 58005
KAPN 190454Z AUTO 00000KT 10SM OVC075 13/12 A2987 RMK AO2 RAE11 SLP115 P0000 T01330117 402330072
KAPN 190354Z AUTO 00000KT 10SM -RA FEW055 SCT070 OVC090 13/11 A2989 RMK AO2 RAB16 SLP122 P0000 T01330106
KAPN 190254Z AUTO 13004KT 10SM OVC075 13/11 A2988 RMK AO2 SLP118 60000 T01330106 50004
KAPN 190154Z AUTO 03004KT 10SM OVC085 13/11 A2989 RMK AO2 RAB02E32 SLP124 P0000 T01330106
KAPN 190054Z AUTO 00000KT 10SM BKN065 OVC110 15/09 A2989 RMK AO2 SLP124 T01500094
KAPN 182354Z AUTO 11004KT 10SM SCT060 BKN090 15/09 A2987 RMK AO2 SLP116 60000 T01500089 10228 20150 55007
KAPN 182254Z AUTO 11005KT 10SM SCT060 BKN070 OVC110 16/09 A2987 RMK AO2 RAB14E34 SLP116 P0000 T01610094
KAPN 182154Z AUTO 06005KT 10SM FEW037 SCT046 BKN090 17/10 A2989 RMK AO2 RAB25E47 SLP122 P0000 T01720100
KAPN 182054Z AUTO 10007KT 10SM OVC065 19/08 A2989 RMK AO2 SLP123 T01890083 56013
KAPN 181954Z AUTO 11009KT 10SM FEW070 SCT110 23/08 A2990 RMK AO2 SLP126 T02280078
KAPN 181854Z 12012KT 10SM FEW060 22/07 A2991 RMK AO2 SLP130 T02220067
KAPN 181754Z 10007KT 10SM CLR 22/08 A2993 RMK AO2 SLP136 T02170078 10233 20122 58009
KAPN 181654Z 10008KT 10SM CLR 22/09 A2994 RMK AO2 SLP140 T02220094
KAPN 181554Z 11006KT 10SM CLR 22/09 A2996 RMK AO2 SLP145 T02170094
KAPN 181454Z 10003KT 10SM CLR 21/11 A2996 RMK AO2 SLP145 T02110106 58009
KAPN 181354Z 00000KT 10SM FEW033 17/11 A2997 RMK AO2 SLP151 T01670106